Time;durP1;ratioP1;P1;durP2;ratioP2;P2;SDS_P1;SDS_P2;PMS_P1;PMS_P2;Temp;Humidity;BMP_temperature;BMP_pressure;BME280_temperature;BME280_humidity;BME280_pressure;Samples;Min_cycle;Max_cycle;Signal;HPM_P1;HPM_P2
2023/09/15 00:00:25;;;;;;;2.17;1.20;;;;;;;10.71;100.00;101064.03;4979601;28;20469;-77
2023/09/15 00:02:52;;;;;;;1.63;1.13;;;;;;;10.68;100.00;101067.91;4979598;28;20137;-77
2023/09/15 00:05:20;;;;;;;2.78;1.00;;;;;;;10.69;100.00;101066.03;4979737;28;20508;-78
2023/09/15 00:07:45;;;;;;;7.05;2.17;;;;;;;10.71;100.00;101066.72;4979170;28;20042;-77
2023/09/15 00:10:11;;;;;;;2.67;1.30;;;;;;;10.71;100.00;101067.56;4979475;28;20097;-77
2023/09/15 00:12:39;;;;;;;5.60;1.42;;;;;;;10.70;100.00;101067.75;5011721;28;20149;-77
2023/09/15 00:15:08;;;;;;;2.92;1.42;;;;;;;10.72;100.00;101057.66;4979424;28;20049;-77
2023/09/15 00:17:39;;;;;;;5.25;1.77;;;;;;;10.72;100.00;101055.81;4994208;28;20030;-77
2023/09/15 00:20:15;;;;;;;3.83;2.20;;;;;;;10.74;100.00;101051.09;4979227;28;20046;-77
2023/09/15 00:22:51;;;;;;;3.30;1.63;;;;;;;10.75;100.00;101051.94;4979295;28;20500;-76
2023/09/15 00:25:21;;;;;;;3.20;1.63;;;;;;;10.71;100.00;101043.34;5011573;28;20033;-76
2023/09/15 00:27:48;;;;;;;6.85;1.23;;;;;;;10.68;100.00;101046.38;5011542;28;20469;-77
2023/09/15 00:30:18;;;;;;;4.05;1.40;;;;;;;10.62;100.00;101041.69;4979042;28;20042;-77
2023/09/15 00:32:46;;;;;;;2.25;1.58;;;;;;;10.61;100.00;101042.72;4979082;28;20042;-77
2023/09/15 00:35:12;;;;;;;2.40;1.13;;;;;;;10.61;100.00;101041.84;4995010;28;20034;-77
2023/09/15 00:37:38;;;;;;;1.92;1.30;;;;;;;10.65;100.00;101043.22;4979031;28;20065;-77
2023/09/15 00:40:08;;;;;;;1.75;1.10;;;;;;;10.64;100.00;101036.13;4979120;28;20120;-77
2023/09/15 00:42:37;;;;;;;1.77;1.08;;;;;;;10.66;100.00;101037.63;4979217;28;20128;-77
2023/09/15 00:45:06;;;;;;;2.67;1.52;;;;;;;10.65;100.00;101033.28;4978583;28;20053;-79
2023/09/15 00:47:34;;;;;;;2.45;1.35;;;;;;;10.65;100.00;101030.59;4994887;28;20038;-77
2023/09/15 00:50:01;;;;;;;1.58;1.00;;;;;;;10.60;100.00;101030.25;4995026;28;20050;-77
2023/09/15 00:52:27;;;;;;;6.07;2.20;;;;;;;10.61;100.00;101031.09;4978669;28;20041;-79
2023/09/15 00:54:53;;;;;;;3.85;2.35;;;;;;;10.64;100.00;101030.75;4978663;28;20106;-77
2023/09/15 00:57:19;;;;;;;21.08;7.45;;;;;;;10.68;100.00;101026.72;4978514;28;20512;-77
2023/09/15 00:59:45;;;;;;;74.03;26.65;;;;;;;10.60;100.00;101018.66;4978784;28;20034;-77
2023/09/15 01:02:12;;;;;;;90.78;31.65;;;;;;;10.57;100.00;101017.16;4978411;28;20739;-77
2023/09/15 01:04:40;;;;;;;70.75;27.67;;;;;;;10.60;100.00;101026.75;4994170;28;20034;-77
2023/09/15 01:07:07;;;;;;;80.47;30.50;;;;;;;10.62;100.00;101019.34;4994176;28;20038;-77
2023/09/15 01:09:33;;;;;;;77.03;29.30;;;;;;;10.62;100.00;101019.34;4978441;28;20041;-77
2023/09/15 01:11:59;;;;;;;60.47;24.10;;;;;;;10.60;100.00;101024.06;4978276;28;20038;-77
2023/09/15 01:14:25;;;;;;;56.00;22.23;;;;;;;10.59;100.00;101017.84;4978349;28;20042;-77
2023/09/15 01:16:59;;;;;;;53.72;22.88;;;;;;;10.61;100.00;101023.03;4978179;28;20034;-76
2023/09/15 01:19:53;;;;;;;50.80;21.27;;;;;;;10.60;100.00;101022.19;4978202;28;20495;-76
2023/09/15 01:22:18;;;;;;;62.88;25.13;;;;;;;10.60;100.00;101021.34;4977867;28;20473;-78
2023/09/15 01:25:04;;;;;;;87.47;34.42;;;;;;;10.63;100.00;101015.63;4977987;28;20034;-78
2023/09/15 01:27:46;;;;;;;92.38;36.72;;;;;;;10.63;100.00;101015.63;4961907;28;20053;-78
2023/09/15 01:30:12;;;;;;;104.27;37.63;;;;;;;10.61;100.00;101023.03;4977667;28;20022;-78
2023/09/15 01:32:42;;;;;;;104.63;39.92;;;;;;;10.59;100.00;101028.59;4962247;28;20554;-77
2023/09/15 01:35:08;;;;;;;87.85;36.88;;;;;;;10.59;100.00;101030.44;4977515;28;20073;-78
2023/09/15 01:37:33;;;;;;;41.30;18.00;;;;;;;10.63;100.00;101027.22;4977900;28;20026;-77
2023/09/15 01:40:04;;;;;;;77.22;31.08;;;;;;;10.64;100.00;101030.75;4977801;28;20041;-78
2023/09/15 01:42:32;;;;;;;39.50;17.50;;;;;;;10.66;100.00;101026.06;4993788;28;20121;-77
2023/09/15 01:44:58;;;;;;;25.48;12.57;;;;;;;10.67;100.00;101027.75;4977223;28;20034;-78
2023/09/15 01:47:23;;;;;;;28.73;12.23;;;;;;;10.65;100.00;101025.22;4993991;28;20042;-77
2023/09/15 01:49:50;;;;;;;20.60;9.32;;;;;;;10.63;100.00;101021.00;4977305;28;20389;-77
2023/09/15 01:52:16;;;;;;;17.88;8.05;;;;;;;10.60;100.00;101026.75;4993825;28;20038;-78
2023/09/15 01:54:42;;;;;;;16.95;6.05;;;;;;;10.58;100.00;101024.19;4977413;28;20073;-78
2023/09/15 01:57:09;;;;;;;11.60;5.32;;;;;;;10.56;100.00;101020.88;4977572;28;20030;-78
2023/09/15 01:59:35;;;;;;;21.50;8.20;;;;;;;10.56;100.00;101012.81;4976919;28;20034;-78
2023/09/15 02:02:02;;;;;;;22.52;9.27;;;;;;;10.53;100.00;101008.59;4977232;28;20030;-77
2023/09/15 02:04:28;;;;;;;8.30;4.15;;;;;;;10.50;100.00;101003.53;4977192;28;20026;-77
2023/09/15 02:06:53;;;;;;;28.20;8.80;;;;;;;10.48;100.00;101002.91;4977300;28;20104;-79
2023/09/15 02:09:19;;;;;;;17.83;7.00;;;;;;;10.46;100.00;101004.91;4977247;28;20487;-79
2023/09/15 02:11:45;;;;;;;14.52;7.60;;;;;;;10.44;100.00;101000.69;4977047;28;20034;-78
2023/09/15 02:14:11;;;;;;;14.57;6.28;;;;;;;10.42;100.00;100998.16;4993471;28;20417;-77
2023/09/15 02:16:37;;;;;;;10.57;6.22;;;;;;;10.40;100.00;101000.22;5009721;28;20528;-77
2023/09/15 02:19:03;;;;;;;12.95;6.22;;;;;;;10.42;100.00;101008.09;4977250;28;20046;-78
2023/09/15 02:21:29;;;;;;;15.43;5.60;;;;;;;10.45;100.00;101002.38;4977026;28;20037;-78
2023/09/15 02:23:55;;;;;;;13.35;4.47;;;;;;;10.43;100.00;101005.25;4993362;28;20096;-77
2023/09/15 02:26:21;;;;;;;3.15;2.00;;;;;;;10.48;100.00;101008.28;4992992;28;20564;-77
2023/09/15 02:28:47;;;;;;;1.85;1.23;;;;;;;10.52;100.00;101014.97;4977004;28;20038;-77
2023/09/15 02:31:13;;;;;;;8.32;3.08;;;;;;;10.57;100.00;101012.63;4976933;28;20108;-77
2023/09/15 02:33:38;;;;;;;3.92;1.33;;;;;;;10.58;100.00;101010.75;4977215;28;20084;-77
2023/09/15 02:36:04;;;;;;;8.52;2.50;;;;;;;10.58;100.00;101008.06;4976720;28;20034;-78
2023/09/15 02:38:30;;;;;;;5.88;2.08;;;;;;;10.56;100.00;101010.13;4977229;28;20049;-77
2023/09/15 02:40:56;;;;;;;2.80;1.30;;;;;;;10.51;100.00;101005.22;4963289;28;20039;-77
2023/09/15 02:43:22;;;;;;;3.33;1.95;;;;;;;10.49;100.00;101007.25;4983465;28;20034;-80
2023/09/15 02:45:47;;;;;;;3.80;1.35;;;;;;;10.49;100.00;100998.34;4983038;28;20177;-76
2023/09/15 02:48:13;;;;;;;2.58;1.50;;;;;;;10.44;100.00;100990.78;4983125;28;20052;-76
2023/09/15 02:50:42;;;;;;;2.63;1.80;;;;;;;10.42;100.00;100991.97;4983346;28;20089;-78
2023/09/15 02:53:08;;;;;;;2.20;1.15;;;;;;;10.40;100.00;100993.97;4999078;28;20042;-77
2023/09/15 02:55:37;;;;;;;2.50;1.30;;;;;;;10.40;100.00;100991.28;4983103;28;20173;-75
2023/09/15 02:58:04;;;;;;;5.60;1.50;;;;;;;10.47;100.00;100989.59;4983220;28;20632;-78
2023/09/15 03:00:30;;;;;;;2.08;1.25;;;;;;;10.52;100.00;101003.38;4983211;28;20042;-78
2023/09/15 03:02:56;;;;;;;1.75;1.38;;;;;;;10.58;100.00;100991.94;4999502;28;20053;-78
2023/09/15 03:05:21;;;;;;;4.18;1.30;;;;;;;10.65;100.00;100992.94;4999302;28;20389;-77
2023/09/15 03:07:47;;;;;;;3.45;1.45;;;;;;;10.67;100.00;100984.72;4983089;28;20393;-75
2023/09/15 03:10:13;;;;;;;2.03;1.30;;;;;;;10.67;100.00;100982.03;4983260;28;20106;-77
2023/09/15 03:12:38;;;;;;;4.63;1.25;;;;;;;10.69;100.00;100988.91;4999273;28;20069;-75
2023/09/15 03:15:08;;;;;;;4.95;1.30;;;;;;;10.71;100.00;100986.03;4966590;28;20030;-78
2023/09/15 03:17:34;;;;;;;2.03;1.25;;;;;;;10.72;100.00;100979.66;4998991;28;20400;-76
2023/09/15 03:20:05;;;;;;;7.53;1.60;;;;;;;10.68;100.00;100978.31;4999250;28;20439;-76
2023/09/15 03:22:33;;;;;;;2.35;1.50;;;;;;;10.63;100.00;100980.69;4999049;28;20045;-76
2023/09/15 03:24:59;;;;;;;4.53;1.55;;;;;;;10.63;100.00;100978.00;4999060;28;20037;-76
2023/09/15 03:27:27;;;;;;;3.08;1.38;;;;;;;10.62;100.00;100973.63;4983081;28;20429;-77
2023/09/15 03:29:52;;;;;;;1.98;1.23;;;;;;;10.59;100.00;100966.75;4999250;28;20041;-76
2023/09/15 03:32:18;;;;;;;4.57;1.55;;;;;;;10.58;100.00;100956.97;4966533;28;20042;-76
2023/09/15 03:34:45;;;;;;;5.35;1.50;;;;;;;10.56;100.00;100953.66;4998846;28;20173;-76
2023/09/15 03:37:11;;;;;;;2.60;1.20;;;;;;;10.54;100.00;100953.81;4983053;28;20478;-75
2023/09/15 03:39:36;;;;;;;2.22;1.30;;;;;;;10.54;100.00;100944.91;4982945;28;20027;-76
2023/09/15 03:42:02;;;;;;;3.20;1.30;;;;;;;10.53;100.00;100944.06;4983032;28;20038;-76
2023/09/15 03:44:28;;;;;;;2.35;1.27;;;;;;;10.56;100.00;100950.97;4998463;28;20449;-76
2023/09/15 03:46:53;;;;;;;1.92;1.30;;;;;;;10.55;100.00;100944.72;4982669;28;20026;-77
2023/09/15 03:49:19;;;;;;;1.08;0.90;;;;;;;10.56;100.00;100943.72;4982854;28;20022;-76
2023/09/15 03:51:44;;;;;;;1.42;0.90;;;;;;;10.57;100.00;100942.72;4981304;28;20061;-76
2023/09/15 03:54:10;;;;;;;2.55;0.85;;;;;;;10.57;100.00;100941.88;4978624;28;20042;-76
2023/09/15 03:56:36;;;;;;;4.53;1.33;;;;;;;10.54;100.00;100942.22;4979757;28;20035;-77
2023/09/15 03:59:03;;;;;;;2.30;1.10;;;;;;;10.54;100.00;100950.28;4979725;28;20118;-76
2023/09/15 04:01:30;;;;;;;3.63;1.25;;;;;;;10.55;100.00;100952.78;5011495;28;20030;-77
2023/09/15 04:03:56;;;;;;;1.92;1.45;;;;;;;10.57;100.00;100941.88;4979528;28;20045;-76
2023/09/15 04:06:21;;;;;;;4.45;1.48;;;;;;;10.60;100.00;100948.75;4979355;28;20050;-76
2023/09/15 04:08:50;;;;;;;2.38;1.50;;;;;;;10.60;100.00;100940.69;4979387;28;20038;-76
2023/09/15 04:11:15;;;;;;;5.78;1.80;;;;;;;10.58;100.00;100940.84;4995716;28;20038;-76
2023/09/15 04:13:41;;;;;;;2.00;1.40;;;;;;;10.60;100.00;100941.53;4979298;28;20396;-77
2023/09/15 04:16:09;;;;;;;4.60;1.30;;;;;;;10.57;100.00;100948.09;4995198;28;20040;-76
2023/09/15 04:18:35;;;;;;;4.32;1.52;;;;;;;10.57;100.00;100947.25;4995441;28;20477;-77
2023/09/15 04:21:04;;;;;;;5.78;1.40;;;;;;;10.56;100.00;100945.59;4979004;28;20058;-76
2023/09/15 04:23:30;;;;;;;3.08;1.30;;;;;;;10.55;100.00;100946.56;4995202;28;20133;-79
2023/09/15 04:25:56;;;;;;;1.73;1.33;;;;;;;10.56;100.00;100946.41;4978983;28;20054;-77
2023/09/15 04:28:25;;;;;;;1.92;1.17;;;;;;;10.56;100.00;100941.03;4979302;28;20069;-75
2023/09/15 04:30:50;;;;;;;2.22;1.08;;;;;;;10.55;100.00;100944.72;4979138;28;20129;-75
2023/09/15 04:33:16;;;;;;;5.97;1.15;;;;;;;10.54;100.00;100942.22;4978927;28;20160;-75
2023/09/15 04:35:42;;;;;;;3.67;1.05;;;;;;;10.53;100.00;100935.16;4994848;28;20046;-75
2023/09/15 04:38:08;;;;;;;2.95;1.40;;;;;;;10.51;100.00;100935.34;4994783;28;20045;-75
2023/09/15 04:40:34;;;;;;;3.53;1.38;;;;;;;10.49;100.00;100937.34;4995039;28;20034;-77
2023/09/15 04:42:59;;;;;;;2.38;1.02;;;;;;;10.46;100.00;100936.84;4978561;28;20041;-79
2023/09/15 04:45:28;;;;;;;1.88;1.10;;;;;;;10.43;100.00;100935.34;4978789;28;20038;-78
2023/09/15 04:47:53;;;;;;;4.13;1.48;;;;;;;10.41;100.00;100937.38;5011091;28;20069;-77
2023/09/15 04:50:19;;;;;;;3.30;1.42;;;;;;;10.42;100.00;100933.66;4994900;28;20061;-78
2023/09/15 04:52:58;;;;;;;3.42;1.40;;;;;;;10.43;100.00;100929.16;4978550;28;20077;-78
2023/09/15 04:55:25;;;;;;;2.42;1.58;;;;;;;10.43;100.00;100929.97;5011250;28;20532;-77
2023/09/15 04:57:51;;;;;;;2.47;1.30;;;;;;;10.44;100.00;100930.81;4978624;28;20040;-77
2023/09/15 05:00:23;;;;;;;2.60;1.27;;;;;;;10.43;100.00;100923.75;4994630;28;20500;-77
2023/09/15 05:02:52;;;;;;;1.98;1.20;;;;;;;10.44;100.00;100925.44;4978394;28;20495;-79
2023/09/15 05:05:20;;;;;;;2.60;1.20;;;;;;;10.44;100.00;100925.44;4977888;28;20376;-77
2023/09/15 05:07:46;;;;;;;1.67;0.95;;;;;;;10.46;100.00;100921.56;4978337;28;20070;-77
2023/09/15 05:10:12;;;;;;;3.05;1.25;;;;;;;10.49;100.00;100925.75;4978393;28;20037;-77
2023/09/15 05:12:37;;;;;;;1.83;1.20;;;;;;;10.43;100.00;100915.69;4978233;28;20366;-77
2023/09/15 05:15:04;;;;;;;2.05;1.13;;;;;;;10.48;100.00;100914.19;4978430;28;20092;-77
2023/09/15 05:17:30;;;;;;;2.03;1.40;;;;;;;10.47;100.00;100915.16;4994040;28;20026;-77
2023/09/15 05:19:56;;;;;;;2.97;1.40;;;;;;;10.47;100.00;100912.47;4978385;28;20037;-77
2023/09/15 05:22:22;;;;;;;4.35;1.52;;;;;;;10.50;100.00;100913.97;4977884;28;20496;-77
2023/09/15 05:24:48;;;;;;;1.88;1.10;;;;;;;10.50;100.00;100905.91;5010202;28;20536;-77
2023/09/15 05:27:14;;;;;;;3.92;1.55;;;;;;;10.51;100.00;100919.19;4993993;28;20052;-77
2023/09/15 05:29:39;;;;;;;2.47;1.40;;;;;;;10.53;100.00;100916.31;4977784;28;20045;-77
2023/09/15 05:32:05;;;;;;;4.20;1.52;;;;;;;10.52;100.00;100912.81;4977708;28;20062;-77
2023/09/15 05:34:31;;;;;;;5.45;1.58;;;;;;;10.55;100.00;100917.84;4977971;28;20441;-77
2023/09/15 05:36:59;;;;;;;2.08;1.25;;;;;;;10.54;100.00;100910.78;4977917;28;20034;-77
2023/09/15 05:39:25;;;;;;;3.78;1.77;;;;;;;10.53;100.00;100903.75;4977336;28;20449;-77
2023/09/15 05:41:51;;;;;;;2.95;1.73;;;;;;;10.56;100.00;100911.47;4993888;28;20048;-77
2023/09/15 05:44:16;;;;;;;2.15;1.38;;;;;;;10.57;100.00;100912.28;4977719;28;20037;-77
2023/09/15 05:46:47;;;;;;;3.38;1.40;;;;;;;10.56;100.00;100919.53;4977775;28;20041;-76
2023/09/15 05:49:13;;;;;;;2.33;1.33;;;;;;;10.56;100.00;100913.31;4993563;28;20045;-78
2023/09/15 05:51:39;;;;;;;4.03;1.48;;;;;;;10.56;100.00;100916.84;4977048;28;20121;-77
2023/09/15 05:54:05;;;;;;;1.90;1.25;;;;;;;10.56;100.00;100916.00;4977624;28;20041;-77
2023/09/15 05:56:33;;;;;;;2.00;1.30;;;;;;;10.56;100.00;100919.53;4993804;28;20077;-77
2023/09/15 05:58:58;;;;;;;1.15;0.85;;;;;;;10.55;100.00;100912.44;4977561;28;20030;-77
2023/09/15 06:01:25;;;;;;;1.73;1.23;;;;;;;10.56;100.00;100919.53;4977366;28;20046;-77
2023/09/15 06:03:51;;;;;;;1.60;1.02;;;;;;;10.57;100.00;100920.38;5009724;28;20457;-77
2023/09/15 06:06:17;;;;;;;2.85;1.30;;;;;;;10.56;100.00;100926.75;4977288;28;20035;-78
2023/09/15 06:08:42;;;;;;;2.20;1.15;;;;;;;10.55;100.00;100933.97;4976867;28;20046;-77
2023/09/15 06:11:08;;;;;;;2.03;1.20;;;;;;;10.57;100.00;100931.94;4976891;28;20031;-77
2023/09/15 06:13:36;;;;;;;4.03;1.20;;;;;;;10.57;100.00;100937.31;4993281;28;20125;-77
2023/09/15 06:16:06;;;;;;;2.30;1.10;;;;;;;10.57;100.00;100934.63;4976527;28;20069;-77
2023/09/15 06:18:32;;;;;;;2.72;1.17;;;;;;;10.59;100.00;100939.03;4977205;28;20038;-77
2023/09/15 06:21:00;;;;;;;2.92;1.33;;;;;;;10.51;100.00;100927.28;4960798;28;20089;-77
2023/09/15 06:23:26;;;;;;;1.40;0.95;;;;;;;10.54;100.00;100936.84;4977075;28;20038;-76
2023/09/15 06:25:55;;;;;;;4.30;1.65;;;;;;;10.59;100.00;100944.41;4992881;28;20080;-77
2023/09/15 06:28:23;;;;;;;1.48;1.10;;;;;;;10.64;100.00;100950.94;4993176;28;20050;-77
2023/09/15 06:30:48;;;;;;;2.63;1.20;;;;;;;10.68;100.00;100954.94;4992411;28;20066;-77
2023/09/15 06:33:14;;;;;;;1.50;1.10;;;;;;;10.70;100.00;100957.47;4976941;28;20196;-78
2023/09/15 06:35:41;;;;;;;3.28;1.13;;;;;;;10.68;100.00;100964.88;4992445;28;20096;-76
2023/09/15 06:38:06;;;;;;;4.53;1.23;;;;;;;10.67;100.00;100964.03;4992817;28;20030;-77
2023/09/15 06:40:35;;;;;;;4.70;1.35;;;;;;;10.68;100.00;100963.00;4976813;28;20035;-77
2023/09/15 06:43:04;;;;;;;3.40;1.30;;;;;;;10.67;100.00;100958.66;4992290;28;20035;-76
2023/09/15 06:45:31;;;;;;;2.95;1.20;;;;;;;10.71;100.00;100964.53;4992767;28;20436;-76
2023/09/15 06:47:59;;;;;;;4.63;1.60;;;;;;;10.74;100.00;100966.88;4976699;28;20042;-76
2023/09/15 06:50:56;;;;;;;4.65;1.70;;;;;;;10.77;100.00;100964.69;4992510;28;20042;-76
2023/09/15 06:53:24;;;;;;;3.55;1.52;;;;;;;10.78;100.00;100976.28;4976830;28;20046;-76
2023/09/15 06:55:53;;;;;;;2.63;1.40;;;;;;;10.80;100.00;100974.28;4976737;28;20492;-76
2023/09/15 06:58:19;;;;;;;3.00;1.27;;;;;;;10.83;100.00;100979.31;4992710;28;20077;-76
2023/09/15 07:00:44;;;;;;;3.13;1.52;;;;;;;10.83;100.00;100983.84;4976422;28;20062;-77
2023/09/15 07:03:10;;;;;;;3.22;2.05;;;;;;;10.83;100.00;100984.69;4976716;28;20045;-78
2023/09/15 07:05:39;;;;;;;4.55;1.48;;;;;;;10.85;100.00;100990.72;4960086;28;20033;-77
2023/09/15 07:08:05;;;;;;;1.58;1.05;;;;;;;10.84;100.00;100989.03;4991886;28;20512;-77
2023/09/15 07:10:30;;;;;;;2.90;1.65;;;;;;;10.88;100.00;100992.25;4976257;28;20026;-77
2023/09/15 07:12:56;;;;;;;4.20;1.52;;;;;;;10.92;100.00;100999.78;4974948;28;20042;-79
2023/09/15 07:15:25;;;;;;;3.53;1.83;;;;;;;10.93;100.00;100998.78;4974411;28;20034;-80
2023/09/15 07:17:51;;;;;;;2.60;1.80;;;;;;;10.95;100.00;101003.97;4974366;28;20030;-80
2023/09/15 07:20:17;;;;;;;2.80;1.50;;;;;;;10.97;100.00;101005.47;4990023;28;20035;-78
2023/09/15 07:22:42;;;;;;;3.55;1.35;;;;;;;10.98;100.00;101001.78;4974391;28;20037;-78
2023/09/15 07:25:08;;;;;;;2.00;1.17;;;;;;;10.97;100.00;100989.34;4957790;28;20053;-78
2023/09/15 07:27:34;;;;;;;2.20;0.75;;;;;;;11.02;100.00;100990.69;5008032;28;20045;-79
2023/09/15 07:30:00;;;;;;;3.25;1.17;;;;;;;11.06;100.00;100998.25;4995936;28;20034;-77
2023/09/15 07:32:25;;;;;;;3.63;1.13;;;;;;;11.07;100.00;100991.84;4979942;28;20037;-77
2023/09/15 07:34:52;;;;;;;2.05;0.98;;;;;;;11.09;100.00;100994.38;4979516;28;20050;-78
2023/09/15 07:37:20;;;;;;;2.13;1.08;;;;;;;11.07;100.00;100994.53;4995553;28;20035;-78
2023/09/15 07:39:46;;;;;;;1.35;0.77;;;;;;;11.07;100.00;100991.00;4979867;28;20038;-77
2023/09/15 07:42:11;;;;;;;2.00;1.00;;;;;;;11.08;100.00;100987.28;4995490;28;20489;-79
2023/09/15 07:44:37;;;;;;;3.75;1.02;;;;;;;11.11;100.00;100989.63;4995771;28;20031;-78
2023/09/15 07:47:06;;;;;;;1.67;0.90;;;;;;;11.09;100.00;100980.91;5011776;28;20061;-76
2023/09/15 07:49:31;;;;;;;2.33;1.05;;;;;;;11.10;100.00;100990.66;4979881;28;20038;-77
2023/09/15 07:52:01;;;;;;;1.50;0.95;;;;;;;11.09;100.00;100981.75;4996003;28;20138;-78
2023/09/15 07:54:28;;;;;;;1.45;0.90;;;;;;;11.11;100.00;100987.78;4995769;28;20026;-79
2023/09/15 07:56:54;;;;;;;2.10;1.00;;;;;;;11.10;100.00;100988.78;4979669;28;20034;-78
2023/09/15 07:59:20;;;;;;;1.15;0.88;;;;;;;11.12;100.00;100988.63;4979746;28;20053;-77
2023/09/15 08:01:45;;;;;;;1.75;0.77;;;;;;;11.13;100.00;100985.75;4979588;28;20034;-77
2023/09/15 08:04:12;;;;;;;3.35;1.17;;;;;;;11.13;100.00;100985.75;4979582;28;20022;-77
2023/09/15 08:06:40;;;;;;;2.33;0.90;;;;;;;11.13;100.00;100979.53;4979182;28;20026;-78
2023/09/15 08:09:06;;;;;;;4.82;1.10;;;;;;;11.16;100.00;100985.41;4979420;28;20042;-75
2023/09/15 08:11:37;;;;;;;2.53;1.00;;;;;;;11.20;100.00;100988.59;4978669;28;20389;-76
2023/09/15 08:14:03;;;;;;;3.25;1.50;;;;;;;11.26;100.00;100984.38;4995518;28;20125;-76
2023/09/15 08:16:32;;;;;;;3.28;1.92;;;;;;;11.31;100.00;100987.38;4994718;28;20042;-76
2023/09/15 08:18:58;;;;;;;4.57;2.22;;;;;;;11.36;100.00;100985.84;4978386;28;20065;-76
2023/09/15 08:21:25;;;;;;;4.22;1.70;;;;;;;11.36;100.00;100988.53;4978097;28;20046;-76
2023/09/15 08:23:55;;;;;;;3.50;1.90;;;;;;;11.36;100.00;100982.31;4978658;28;20045;-76
2023/09/15 08:26:25;;;;;;;;;;;;;;;11.38;100.00;100999.13;4978517;28;20045;-78
2023/09/15 08:28:51;;;;;;;2.42;1.50;;;;;;;11.39;100.00;100996.25;4978233;28;19920;-77
2023/09/15 08:31:20;;;;;;;4.90;1.10;;;;;;;11.38;100.00;100997.28;4979208;28;20390;-77
2023/09/15 08:33:48;;;;;;;1.80;1.10;;;;;;;11.38;100.00;100993.75;4979123;28;20053;-76
2023/09/15 08:36:14;;;;;;;1.88;1.02;;;;;;;11.41;100.00;100999.59;4979004;28;20034;-76
2023/09/15 08:38:39;;;;;;;4.57;1.52;;;;;;;11.44;100.00;100998.41;4978238;28;20485;-76
2023/09/15 08:41:24;;;;;;;2.33;1.38;;;;;;;11.43;100.00;100992.22;4978961;28;20375;-77
2023/09/15 08:43:52;;;;;;;3.25;1.35;;;;;;;11.48;100.00;100996.19;4962957;28;20033;-76
2023/09/15 08:46:18;;;;;;;1.48;1.00;;;;;;;11.50;100.00;100994.19;4978635;28;20105;-78
2023/09/15 08:48:49;;;;;;;2.72;1.02;;;;;;;11.56;100.00;100998.84;4994737;28;20125;-77
2023/09/15 08:51:16;;;;;;;1.75;1.13;;;;;;;11.60;100.00;101000.19;5010632;28;20045;-77
2023/09/15 08:53:47;;;;;;;2.05;0.88;;;;;;;11.65;100.00;100995.94;4979327;28;20540;-78
2023/09/15 08:56:14;;;;;;;2.28;1.08;;;;;;;11.71;100.00;100999.78;4978497;28;20038;-77
2023/09/15 08:58:41;;;;;;;1.05;0.85;;;;;;;11.80;100.00;101001.44;4994571;28;20031;-77
2023/09/15 09:01:09;;;;;;;1.83;0.93;;;;;;;11.86;100.00;101008.00;4962315;28;20121;-77
2023/09/15 09:03:37;;;;;;;1.98;1.00;;;;;;;11.93;100.00;101003.53;4978159;28;20030;-76
2023/09/15 09:06:05;;;;;;;1.35;0.98;;;;;;;11.95;100.00;101006.06;4978321;28;20035;-77
2023/09/15 09:08:32;;;;;;;1.48;0.80;;;;;;;11.99;100.00;100993.94;4978109;28;20061;-77
2023/09/15 09:10:58;;;;;;;1.15;1.00;;;;;;;11.94;100.00;100983.69;4978308;28;20034;-76
2023/09/15 09:13:23;;;;;;;1.17;0.95;;;;;;;11.96;100.00;100991.56;4977726;28;20520;-78
2023/09/15 09:15:50;;;;;;;2.05;0.90;;;;;;;11.98;100.00;100981.47;4978094;28;20057;-77
2023/09/15 09:18:18;;;;;;;1.13;0.70;;;;;;;12.04;100.00;100986.97;4993858;28;20035;-76
2023/09/15 09:20:46;;;;;;;2.25;0.93;;;;;;;12.12;100.00;100986.09;4977486;28;20039;-77
2023/09/15 09:23:12;;;;;;;1.98;0.82;;;;;;;12.11;100.00;100989.78;4977463;28;20543;-78
2023/09/15 09:25:39;;;;;;;2.67;1.00;;;;;;;12.16;100.00;100987.38;4977601;28;20034;-77
2023/09/15 09:28:06;;;;;;;2.28;0.98;;;;;;;12.31;100.00;100980.19;4993560;28;20034;-77
2023/09/15 09:30:31;;;;;;;1.40;0.85;;;;;;;12.37;100.00;100983.19;4977261;28;20041;-77
2023/09/15 09:33:00;;;;;;;2.03;1.00;;;;;;;12.39;100.00;100981.16;4994020;28;20381;-77
2023/09/15 09:35:27;;;;;;;1.88;0.90;;;;;;;12.40;100.00;100980.94;4975415;28;20741;-77
2023/09/15 09:37:53;;;;;;;0.95;0.80;;;;;;;12.36;100.00;100976.94;5008355;28;20121;-77
2023/09/15 09:40:39;;;;;;;;;;;;;;;;;;;;;
2023/09/15 09:43:06;;;;;;;1.67;0.70;;;;;;;12.15;100.00;100977.63;5005081;28;20393;-79
2023/09/15 09:45:31;;;;;;;1.73;1.10;;;;;;;12.20;100.00;100987.84;4975596;28;20030;-78
2023/09/15 09:48:00;;;;;;;2.03;1.17;;;;;;;12.16;100.00;100982.00;4991578;28;20038;-77
2023/09/15 09:50:28;;;;;;;2.22;1.20;;;;;;;12.13;100.00;100986.91;4990398;28;20050;-80
2023/09/15 09:52:56;;;;;;;1.63;1.25;;;;;;;12.17;100.00;100980.13;4992112;28;20069;-77
2023/09/15 09:55:27;;;;;;;1.90;1.23;;;;;;;12.18;100.00;100987.22;4993496;28;20034;-76
2023/09/15 09:57:53;;;;;;;1.90;1.20;;;;;;;12.16;100.00;100982.00;4993905;28;20041;-77
2023/09/15 10:00:22;;;;;;;2.70;1.25;;;;;;;12.20;100.00;100980.63;4977392;28;20770;-77
2023/09/15 10:02:48;;;;;;;1.85;1.00;;;;;;;12.24;100.00;100975.69;4993408;28;20093;-77
2023/09/15 10:05:15;;;;;;;2.30;0.90;;;;;;;12.29;100.00;100986.78;4977377;28;20035;-77
2023/09/15 10:07:41;;;;;;;1.73;1.00;;;;;;;12.31;100.00;100987.44;4993298;28;20038;-76
2023/09/15 10:10:07;;;;;;;1.25;1.02;;;;;;;12.31;100.00;100977.50;4993302;28;20141;-77
2023/09/15 10:12:34;;;;;;;1.27;0.90;;;;;;;12.39;100.00;100978.44;4961268;28;20231;-77
2023/09/15 10:15:03;;;;;;;2.67;1.10;;;;;;;12.43;100.00;100985.13;4977268;28;20112;-77
2023/09/15 10:17:28;;;;;;;2.58;0.98;;;;;;;12.39;100.00;100984.69;4993070;28;20053;-77
2023/09/15 10:19:56;;;;;;;2.85;1.13;;;;;;;12.39;100.00;100987.38;4977090;28;20477;-77
2023/09/15 10:22:21;;;;;;;1.90;1.00;;;;;;;12.41;100.00;101000.66;4977180;28;20030;-77
2023/09/15 10:24:55;;;;;;;3.90;1.65;;;;;;;12.44;100.00;101005.72;4977030;28;20042;-77
2023/09/15 10:27:21;;;;;;;4.45;1.98;;;;;;;12.50;100.00;101007.66;4977110;28;20081;-77
2023/09/15 10:29:47;;;;;;;2.40;1.75;;;;;;;12.61;100.00;101007.22;4977123;28;20056;-77
2023/09/15 10:32:19;;;;;;;3.22;2.00;;;;;;;12.72;100.00;101009.47;4993009;28;20469;-77
2023/09/15 10:34:46;;;;;;;2.38;1.30;;;;;;;12.84;100.00;101009.88;4992880;28;20049;-77
2023/09/15 10:37:12;;;;;;;3.85;1.48;;;;;;;12.95;100.00;101003.19;4993006;28;20061;-77
2023/09/15 10:39:40;;;;;;;3.28;1.33;;;;;;;13.14;100.00;101008.00;4976220;28;20089;-77
2023/09/15 10:42:15;;;;;;;2.80;1.15;;;;;;;13.20;100.00;101007.28;4976790;28;20392;-77
2023/09/15 10:44:41;;;;;;;1.40;0.98;;;;;;;13.28;100.00;101005.50;4976886;28;20019;-78
2023/09/15 10:47:15;;;;;;;2.80;1.20;;;;;;;13.34;100.00;100988.59;4993152;28;20042;-77
2023/09/15 10:49:54;;;;;;;2.00;1.10;;;;;;;13.43;100.00;101000.94;4960633;28;20565;-77
2023/09/15 10:52:34;;;;;;;3.80;1.35;;;;;;;13.48;100.00;100998.50;4992559;28;20065;-77
2023/09/15 10:55:00;;;;;;;1.83;1.10;;;;;;;13.38;100.00;100995.25;4992955;28;20058;-79
2023/09/15 10:57:27;;;;;;;1.65;0.95;;;;;;;13.27;100.00;100995.75;4992956;28;20066;-78
2023/09/15 10:59:54;;;;;;;1.08;0.85;;;;;;;13.29;100.00;100999.94;5009179;28;20022;-77
2023/09/15 11:02:21;;;;;;;1.10;0.95;;;;;;;13.22;100.00;101000.84;4994607;28;20558;-77
2023/09/15 11:04:48;;;;;;;2.40;1.02;;;;;;;13.17;100.00;101001.41;4995734;28;20046;-79
2023/09/15 11:07:14;;;;;;;2.33;1.10;;;;;;;13.09;100.00;100988.00;4978375;28;20034;-80
2023/09/15 11:09:45;;;;;;;1.60;0.95;;;;;;;13.16;100.00;100995.16;5010636;28;20401;-79
2023/09/15 11:12:14;;;;;;;1.67;1.10;;;;;;;13.27;100.00;100999.28;4978510;28;20061;-78
2023/09/15 11:14:40;;;;;;;1.77;1.00;;;;;;;13.31;100.00;100997.91;4978621;28;20034;-78
2023/09/15 11:17:06;;;;;;;1.05;0.70;;;;;;;13.33;100.00;101000.41;4994423;28;20041;-79